sensor_id;sensor_type;location;lat;lon;timestamp;temperature;humidity
4245;DHT22;2136;48.502;9.194;2023-08-31T00:01:55;16.30;99.90
4245;DHT22;2136;48.502;9.194;2023-08-31T00:04:23;16.30;99.90
4245;DHT22;2136;48.502;9.194;2023-08-31T00:06:50;16.30;99.90
4245;DHT22;2136;48.502;9.194;2023-08-31T00:09:17;16.30;99.90
4245;DHT22;2136;48.502;9.194;2023-08-31T00:11:44;16.20;99.90
4245;DHT22;2136;48.502;9.194;2023-08-31T00:14:11;16.20;99.90
4245;DHT22;2136;48.502;9.194;2023-08-31T00:16:38;16.20;99.90
4245;DHT22;2136;48.502;9.194;2023-08-31T00:19:05;16.20;99.90
4245;DHT22;2136;48.502;9.194;2023-08-31T00:21:33;16.20;99.90
4245;DHT22;2136;48.502;9.194;2023-08-31T00:23:59;16.20;99.90
4245;DHT22;2136;48.502;9.194;2023-08-31T00:26:26;16.10;99.90
4245;DHT22;2136;48.502;9.194;2023-08-31T00:28:54;16.10;99.90
4245;DHT22;2136;48.502;9.194;2023-08-31T00:31:21;16.10;99.90
4245;DHT22;2136;48.502;9.194;2023-08-31T00:33:48;16.10;99.90
4245;DHT22;2136;48.502;9.194;2023-08-31T00:36:15;16.10;99.90
4245;DHT22;2136;48.502;9.194;2023-08-31T00:38:45;16.10;99.90
4245;DHT22;2136;48.502;9.194;2023-08-31T00:41:12;16.00;99.90
4245;DHT22;2136;48.502;9.194;2023-08-31T00:43:39;16.00;99.90
4245;DHT22;2136;48.502;9.194;2023-08-31T00:46:06;16.00;99.90
4245;DHT22;2136;48.502;9.194;2023-08-31T00:48:33;16.00;99.90
4245;DHT22;2136;48.502;9.194;2023-08-31T00:51:01;16.10;99.90
4245;DHT22;2136;48.502;9.194;2023-08-31T00:53:29;16.00;99.90
4245;DHT22;2136;48.502;9.194;2023-08-31T00:55:58;16.10;99.90
4245;DHT22;2136;48.502;9.194;2023-08-31T00:58:25;16.10;99.90
4245;DHT22;2136;48.502;9.194;2023-08-31T01:01:01;16.10;99.90
4245;DHT22;2136;48.502;9.194;2023-08-31T01:03:46;16.10;99.90
4245;DHT22;2136;48.502;9.194;2023-08-31T01:06:25;16.10;99.90
4245;DHT22;2136;48.502;9.194;2023-08-31T01:08:59;16.00;99.90
4245;DHT22;2136;48.502;9.194;2023-08-31T01:11:37;16.00;99.90
4245;DHT22;2136;48.502;9.194;2023-08-31T01:14:11;16.00;99.90
4245;DHT22;2136;48.502;9.194;2023-08-31T01:16:39;16.00;99.90
4245;DHT22;2136;48.502;9.194;2023-08-31T01:19:17;16.00;99.90
4245;DHT22;2136;48.502;9.194;2023-08-31T01:21:51;16.00;99.90
4245;DHT22;2136;48.502;9.194;2023-08-31T01:24:23;16.00;99.90
4245;DHT22;2136;48.502;9.194;2023-08-31T01:26:51;16.00;99.90
4245;DHT22;2136;48.502;9.194;2023-08-31T01:29:18;16.00;99.90
4245;DHT22;2136;48.502;9.194;2023-08-31T01:31:45;16.00;99.90
4245;DHT22;2136;48.502;9.194;2023-08-31T01:34:12;16.00;99.90
4245;DHT22;2136;48.502;9.194;2023-08-31T01:36:42;16.00;99.90
4245;DHT22;2136;48.502;9.194;2023-08-31T01:39:15;16.00;99.90
4245;DHT22;2136;48.502;9.194;2023-08-31T01:41:51;15.90;99.90
4245;DHT22;2136;48.502;9.194;2023-08-31T01:44:22;16.00;99.90
4245;DHT22;2136;48.502;9.194;2023-08-31T01:46:52;16.00;99.90
4245;DHT22;2136;48.502;9.194;2023-08-31T01:49:20;16.00;99.90
4245;DHT22;2136;48.502;9.194;2023-08-31T01:51:47;16.00;99.90
4245;DHT22;2136;48.502;9.194;2023-08-31T01:54:13;15.90;99.90
4245;DHT22;2136;48.502;9.194;2023-08-31T01:56:41;15.90;99.90
4245;DHT22;2136;48.502;9.194;2023-08-31T01:59:09;15.90;99.90
4245;DHT22;2136;48.502;9.194;2023-08-31T02:01:35;15.90;99.90
4245;DHT22;2136;48.502;9.194;2023-08-31T02:04:03;15.90;99.90
4245;DHT22;2136;48.502;9.194;2023-08-31T02:06:30;15.90;99.90
4245;DHT22;2136;48.502;9.194;2023-08-31T02:08:57;15.80;99.90
4245;DHT22;2136;48.502;9.194;2023-08-31T02:11:24;15.80;99.90
4245;DHT22;2136;48.502;9.194;2023-08-31T02:13:51;15.80;99.90
4245;DHT22;2136;48.502;9.194;2023-08-31T02:16:19;15.80;99.90
4245;DHT22;2136;48.502;9.194;2023-08-31T02:18:46;15.80;99.90
4245;DHT22;2136;48.502;9.194;2023-08-31T02:21:12;15.70;99.90
4245;DHT22;2136;48.502;9.194;2023-08-31T02:23:39;15.80;99.90
4245;DHT22;2136;48.502;9.194;2023-08-31T02:26:06;15.80;99.90
4245;DHT22;2136;48.502;9.194;2023-08-31T02:28:33;15.80;99.90
4245;DHT22;2136;48.502;9.194;2023-08-31T02:31:03;15.80;99.90
4245;DHT22;2136;48.502;9.194;2023-08-31T02:33:31;15.80;99.90
4245;DHT22;2136;48.502;9.194;2023-08-31T02:35:58;15.80;99.90
4245;DHT22;2136;48.502;9.194;2023-08-31T02:38:25;15.80;99.90
4245;DHT22;2136;48.502;9.194;2023-08-31T02:40:52;15.70;99.90
4245;DHT22;2136;48.502;9.194;2023-08-31T02:43:18;15.70;99.90
4245;DHT22;2136;48.502;9.194;2023-08-31T02:45:45;15.70;99.90
4245;DHT22;2136;48.502;9.194;2023-08-31T02:48:13;15.70;99.90
4245;DHT22;2136;48.502;9.194;2023-08-31T02:50:41;15.70;99.90
4245;DHT22;2136;48.502;9.194;2023-08-31T02:53:08;15.70;99.90
4245;DHT22;2136;48.502;9.194;2023-08-31T02:55:35;15.70;99.90
4245;DHT22;2136;48.502;9.194;2023-08-31T02:58:01;15.70;99.90
4245;DHT22;2136;48.502;9.194;2023-08-31T03:00:29;15.70;99.90
4245;DHT22;2136;48.502;9.194;2023-08-31T03:02:55;15.70;99.90
4245;DHT22;2136;48.502;9.194;2023-08-31T03:05:22;15.70;99.90
4245;DHT22;2136;48.502;9.194;2023-08-31T03:07:50;15.60;99.90
4245;DHT22;2136;48.502;9.194;2023-08-31T03:10:17;15.70;99.90
4245;DHT22;2136;48.502;9.194;2023-08-31T03:12:44;15.60;99.90
4245;DHT22;2136;48.502;9.194;2023-08-31T03:15:11;15.60;99.90
4245;DHT22;2136;48.502;9.194;2023-08-31T03:17:38;15.60;99.90
4245;DHT22;2136;48.502;9.194;2023-08-31T03:20:06;15.60;99.90
4245;DHT22;2136;48.502;9.194;2023-08-31T03:22:33;15.70;99.90
4245;DHT22;2136;48.502;9.194;2023-08-31T03:25:01;15.70;99.90
4245;DHT22;2136;48.502;9.194;2023-08-31T03:27:28;15.60;99.90
4245;DHT22;2136;48.502;9.194;2023-08-31T03:29:55;15.70;99.90
4245;DHT22;2136;48.502;9.194;2023-08-31T03:32:22;15.80;99.90
4245;DHT22;2136;48.502;9.194;2023-08-31T03:34:49;15.60;99.90
4245;DHT22;2136;48.502;9.194;2023-08-31T03:37:16;15.60;99.90
4245;DHT22;2136;48.502;9.194;2023-08-31T03:39:43;15.60;99.90
4245;DHT22;2136;48.502;9.194;2023-08-31T03:42:11;15.60;99.90
4245;DHT22;2136;48.502;9.194;2023-08-31T03:44:38;15.60;99.90
4245;DHT22;2136;48.502;9.194;2023-08-31T03:47:05;15.60;99.90
4245;DHT22;2136;48.502;9.194;2023-08-31T03:49:32;15.60;99.90
4245;DHT22;2136;48.502;9.194;2023-08-31T03:52:00;15.60;99.90
4245;DHT22;2136;48.502;9.194;2023-08-31T03:54:27;15.60;99.90
4245;DHT22;2136;48.502;9.194;2023-08-31T03:56:54;15.60;99.90
4245;DHT22;2136;48.502;9.194;2023-08-31T03:59:22;15.70;99.90
4245;DHT22;2136;48.502;9.194;2023-08-31T04:01:49;15.60;99.90
4245;DHT22;2136;48.502;9.194;2023-08-31T04:04:16;15.60;99.90
4245;DHT22;2136;48.502;9.194;2023-08-31T04:06:42;15.60;99.90
4245;DHT22;2136;48.502;9.194;2023-08-31T04:09:09;15.60;99.90
4245;DHT22;2136;48.502;9.194;2023-08-31T04:11:36;15.60;99.90
4245;DHT22;2136;48.502;9.194;2023-08-31T04:14:03;15.60;99.90
4245;DHT22;2136;48.502;9.194;2023-08-31T04:16:31;15.60;99.90
4245;DHT22;2136;48.502;9.194;2023-08-31T04:18:58;15.60;99.90
4245;DHT22;2136;48.502;9.194;2023-08-31T04:21:25;15.60;99.90
4245;DHT22;2136;48.502;9.194;2023-08-31T04:23:52;15.70;99.90
4245;DHT22;2136;48.502;9.194;2023-08-31T04:26:19;15.60;99.90
4245;DHT22;2136;48.502;9.194;2023-08-31T04:28:46;15.70;99.90
4245;DHT22;2136;48.502;9.194;2023-08-31T04:31:12;15.70;99.90
4245;DHT22;2136;48.502;9.194;2023-08-31T04:33:40;15.70;99.90
4245;DHT22;2136;48.502;9.194;2023-08-31T04:36:08;15.70;99.90
4245;DHT22;2136;48.502;9.194;2023-08-31T04:38:35;15.70;99.90
4245;DHT22;2136;48.502;9.194;2023-08-31T04:41:02;15.70;99.90
4245;DHT22;2136;48.502;9.194;2023-08-31T04:43:29;15.70;99.90
4245;DHT22;2136;48.502;9.194;2023-08-31T04:45:56;15.70;99.90
4245;DHT22;2136;48.502;9.194;2023-08-31T04:48:23;15.70;99.90
4245;DHT22;2136;48.502;9.194;2023-08-31T04:50:55;15.70;99.90
4245;DHT22;2136;48.502;9.194;2023-08-31T04:53:22;15.70;99.90
4245;DHT22;2136;48.502;9.194;2023-08-31T04:55:49;15.70;99.90
4245;DHT22;2136;48.502;9.194;2023-08-31T04:58:16;15.80;99.90
4245;DHT22;2136;48.502;9.194;2023-08-31T05:00:43;15.70;99.90
4245;DHT22;2136;48.502;9.194;2023-08-31T05:03:10;15.70;99.90
4245;DHT22;2136;48.502;9.194;2023-08-31T05:05:37;15.70;99.90
4245;DHT22;2136;48.502;9.194;2023-08-31T05:08:06;15.80;99.90
4245;DHT22;2136;48.502;9.194;2023-08-31T05:10:32;15.70;99.90
4245;DHT22;2136;48.502;9.194;2023-08-31T05:12:59;15.70;99.90
4245;DHT22;2136;48.502;9.194;2023-08-31T05:15:26;15.70;99.90
4245;DHT22;2136;48.502;9.194;2023-08-31T05:17:54;15.70;99.90
4245;DHT22;2136;48.502;9.194;2023-08-31T05:20:21;15.70;99.90
4245;DHT22;2136;48.502;9.194;2023-08-31T05:22:49;15.70;99.90
4245;DHT22;2136;48.502;9.194;2023-08-31T05:25:17;15.80;99.90
4245;DHT22;2136;48.502;9.194;2023-08-31T05:27:44;15.80;99.90
4245;DHT22;2136;48.502;9.194;2023-08-31T05:30:11;15.80;99.90
4245;DHT22;2136;48.502;9.194;2023-08-31T05:32:38;15.80;99.90
4245;DHT22;2136;48.502;9.194;2023-08-31T05:35:05;15.90;99.90
4245;DHT22;2136;48.502;9.194;2023-08-31T05:37:33;15.80;99.90
4245;DHT22;2136;48.502;9.194;2023-08-31T05:40:01;15.80;99.90
4245;DHT22;2136;48.502;9.194;2023-08-31T05:42:32;15.80;99.90
4245;DHT22;2136;48.502;9.194;2023-08-31T05:44:59;15.80;99.90
4245;DHT22;2136;48.502;9.194;2023-08-31T05:47:26;15.80;99.90
4245;DHT22;2136;48.502;9.194;2023-08-31T05:49:53;15.80;99.90
4245;DHT22;2136;48.502;9.194;2023-08-31T05:52:19;15.80;99.90
4245;DHT22;2136;48.502;9.194;2023-08-31T05:54:46;15.80;99.90
4245;DHT22;2136;48.502;9.194;2023-08-31T05:57:13;15.80;99.90
4245;DHT22;2136;48.502;9.194;2023-08-31T05:59:41;15.90;99.90
4245;DHT22;2136;48.502;9.194;2023-08-31T06:02:08;16.00;99.90
4245;DHT22;2136;48.502;9.194;2023-08-31T06:04:35;16.00;99.90
4245;DHT22;2136;48.502;9.194;2023-08-31T06:07:02;16.00;99.90
4245;DHT22;2136;48.502;9.194;2023-08-31T06:09:28;16.10;99.90
4245;DHT22;2136;48.502;9.194;2023-08-31T06:11:55;16.10;99.90
4245;DHT22;2136;48.502;9.194;2023-08-31T06:14:22;16.10;99.90
4245;DHT22;2136;48.502;9.194;2023-08-31T06:16:50;16.20;99.90
4245;DHT22;2136;48.502;9.194;2023-08-31T06:19:18;16.10;99.90
4245;DHT22;2136;48.502;9.194;2023-08-31T06:21:44;16.20;99.90
4245;DHT22;2136;48.502;9.194;2023-08-31T06:24:11;16.30;99.90
4245;DHT22;2136;48.502;9.194;2023-08-31T06:26:38;16.30;99.90
4245;DHT22;2136;48.502;9.194;2023-08-31T06:29:05;16.30;99.90
4245;DHT22;2136;48.502;9.194;2023-08-31T06:31:34;16.40;99.90
4245;DHT22;2136;48.502;9.194;2023-08-31T06:34:02;16.40;99.90
4245;DHT22;2136;48.502;9.194;2023-08-31T06:36:29;16.50;99.90
4245;DHT22;2136;48.502;9.194;2023-08-31T06:38:56;16.50;99.90
4245;DHT22;2136;48.502;9.194;2023-08-31T06:41:23;16.60;99.90
4245;DHT22;2136;48.502;9.194;2023-08-31T06:43:50;16.70;99.90
4245;DHT22;2136;48.502;9.194;2023-08-31T06:46:16;16.60;99.90
4245;DHT22;2136;48.502;9.194;2023-08-31T06:48:43;16.60;99.90
4245;DHT22;2136;48.502;9.194;2023-08-31T06:51:11;16.70;99.90
4245;DHT22;2136;48.502;9.194;2023-08-31T06:53:38;16.70;99.90
4245;DHT22;2136;48.502;9.194;2023-08-31T06:56:05;16.80;99.90
4245;DHT22;2136;48.502;9.194;2023-08-31T06:58:32;16.70;99.90
4245;DHT22;2136;48.502;9.194;2023-08-31T07:00:59;16.80;99.90
4245;DHT22;2136;48.502;9.194;2023-08-31T07:03:26;16.80;99.90
4245;DHT22;2136;48.502;9.194;2023-08-31T07:05:53;16.90;99.90
4245;DHT22;2136;48.502;9.194;2023-08-31T07:08:21;16.90;99.90
4245;DHT22;2136;48.502;9.194;2023-08-31T07:10:49;16.90;99.90
4245;DHT22;2136;48.502;9.194;2023-08-31T07:13:17;17.00;99.90
4245;DHT22;2136;48.502;9.194;2023-08-31T07:15:44;17.10;99.90
4245;DHT22;2136;48.502;9.194;2023-08-31T07:18:11;17.10;99.90
4245;DHT22;2136;48.502;9.194;2023-08-31T07:20:38;17.10;99.80
4245;DHT22;2136;48.502;9.194;2023-08-31T07:23:04;17.20;99.90
4245;DHT22;2136;48.502;9.194;2023-08-31T07:25:32;17.20;99.90
4245;DHT22;2136;48.502;9.194;2023-08-31T07:27:59;17.30;99.40
4245;DHT22;2136;48.502;9.194;2023-08-31T07:30:26;17.40;98.70
4245;DHT22;2136;48.502;9.194;2023-08-31T07:32:53;17.30;96.70
4245;DHT22;2136;48.502;9.194;2023-08-31T07:35:19;17.40;95.80
4245;DHT22;2136;48.502;9.194;2023-08-31T07:37:46;17.40;95.10
4245;DHT22;2136;48.502;9.194;2023-08-31T07:40:13;17.50;93.90
4245;DHT22;2136;48.502;9.194;2023-08-31T07:42:41;17.60;93.30
4245;DHT22;2136;48.502;9.194;2023-08-31T07:45:09;17.60;92.80
4245;DHT22;2136;48.502;9.194;2023-08-31T07:47:36;17.70;92.40
4245;DHT22;2136;48.502;9.194;2023-08-31T07:50:03;17.70;91.90
4245;DHT22;2136;48.502;9.194;2023-08-31T07:52:30;17.80;91.30
4245;DHT22;2136;48.502;9.194;2023-08-31T07:54:57;17.80;90.00
4245;DHT22;2136;48.502;9.194;2023-08-31T07:57:24;17.80;87.30
4245;DHT22;2136;48.502;9.194;2023-08-31T07:59:52;17.80;85.80
4245;DHT22;2136;48.502;9.194;2023-08-31T08:02:19;17.80;84.10
4245;DHT22;2136;48.502;9.194;2023-08-31T08:04:46;17.90;83.30
4245;DHT22;2136;48.502;9.194;2023-08-31T08:07:13;17.90;81.90
4245;DHT22;2136;48.502;9.194;2023-08-31T08:09:39;17.90;80.70
4245;DHT22;2136;48.502;9.194;2023-08-31T08:12:07;17.90;79.90
4245;DHT22;2136;48.502;9.194;2023-08-31T08:14:34;17.90;79.50
4245;DHT22;2136;48.502;9.194;2023-08-31T08:17:02;17.80;79.30
4245;DHT22;2136;48.502;9.194;2023-08-31T08:19:29;17.80;79.60
4245;DHT22;2136;48.502;9.194;2023-08-31T08:21:56;18.00;80.00
4245;DHT22;2136;48.502;9.194;2023-08-31T08:24:23;18.00;80.10
4245;DHT22;2136;48.502;9.194;2023-08-31T08:26:50;18.20;80.30
4245;DHT22;2136;48.502;9.194;2023-08-31T08:29:17;18.30;78.90
4245;DHT22;2136;48.502;9.194;2023-08-31T08:31:43;18.40;76.70
4245;DHT22;2136;48.502;9.194;2023-08-31T08:34:11;18.50;75.20
4245;DHT22;2136;48.502;9.194;2023-08-31T08:36:38;18.60;74.00
4245;DHT22;2136;48.502;9.194;2023-08-31T08:39:05;18.80;73.90
4245;DHT22;2136;48.502;9.194;2023-08-31T08:41:33;18.90;71.50
4245;DHT22;2136;48.502;9.194;2023-08-31T08:44:03;19.00;68.50
4245;DHT22;2136;48.502;9.194;2023-08-31T08:46:31;19.10;66.00
4245;DHT22;2136;48.502;9.194;2023-08-31T08:48:59;19.10;64.60
4245;DHT22;2136;48.502;9.194;2023-08-31T08:51:30;19.20;64.50
4245;DHT22;2136;48.502;9.194;2023-08-31T08:53:59;19.30;63.80
4245;DHT22;2136;48.502;9.194;2023-08-31T08:56:26;19.40;62.40
4245;DHT22;2136;48.502;9.194;2023-08-31T08:58:53;19.40;60.80
4245;DHT22;2136;48.502;9.194;2023-08-31T09:01:21;19.60;61.00
4245;DHT22;2136;48.502;9.194;2023-08-31T09:03:49;19.70;60.60
4245;DHT22;2136;48.502;9.194;2023-08-31T09:06:16;19.90;58.80
4245;DHT22;2136;48.502;9.194;2023-08-31T09:08:44;20.00;58.80
4245;DHT22;2136;48.502;9.194;2023-08-31T09:11:20;20.20;58.20
4245;DHT22;2136;48.502;9.194;2023-08-31T09:13:48;20.30;57.70
4245;DHT22;2136;48.502;9.194;2023-08-31T09:16:24;20.50;57.20
4245;DHT22;2136;48.502;9.194;2023-08-31T09:18:50;20.60;55.80
4245;DHT22;2136;48.502;9.194;2023-08-31T09:21:17;20.60;55.10
4245;DHT22;2136;48.502;9.194;2023-08-31T09:23:47;20.60;54.40
4245;DHT22;2136;48.502;9.194;2023-08-31T09:26:21;20.70;53.90
4245;DHT22;2136;48.502;9.194;2023-08-31T09:28:49;20.60;52.90
4245;DHT22;2136;48.502;9.194;2023-08-31T09:31:16;20.60;52.90
4245;DHT22;2136;48.502;9.194;2023-08-31T09:33:50;20.60;52.90
4245;DHT22;2136;48.502;9.194;2023-08-31T09:36:17;20.50;52.90
4245;DHT22;2136;48.502;9.194;2023-08-31T09:38:46;20.40;53.10
4245;DHT22;2136;48.502;9.194;2023-08-31T09:41:13;20.30;52.90
4245;DHT22;2136;48.502;9.194;2023-08-31T09:43:40;20.20;53.30
4245;DHT22;2136;48.502;9.194;2023-08-31T09:46:08;20.30;53.30
4245;DHT22;2136;48.502;9.194;2023-08-31T09:48:36;20.70;54.10
4245;DHT22;2136;48.502;9.194;2023-08-31T09:51:05;21.60;53.00
4245;DHT22;2136;48.502;9.194;2023-08-31T09:53:36;22.70;51.80
4245;DHT22;2136;48.502;9.194;2023-08-31T09:56:05;23.90;50.70
4245;DHT22;2136;48.502;9.194;2023-08-31T09:58:33;25.20;47.80
4245;DHT22;2136;48.502;9.194;2023-08-31T10:00:59;25.10;46.20
4245;DHT22;2136;48.502;9.194;2023-08-31T10:03:28;24.40;45.50
4245;DHT22;2136;48.502;9.194;2023-08-31T10:05:55;24.00;46.10
4245;DHT22;2136;48.502;9.194;2023-08-31T10:08:23;24.50;46.60
4245;DHT22;2136;48.502;9.194;2023-08-31T10:10:52;25.60;47.50
4245;DHT22;2136;48.502;9.194;2023-08-31T10:13:21;26.70;45.70
4245;DHT22;2136;48.502;9.194;2023-08-31T10:15:49;28.40;45.50
4245;DHT22;2136;48.502;9.194;2023-08-31T10:18:16;30.90;43.30
4245;DHT22;2136;48.502;9.194;2023-08-31T10:20:43;33.10;40.50
4245;DHT22;2136;48.502;9.194;2023-08-31T10:23:11;35.50;38.30
4245;DHT22;2136;48.502;9.194;2023-08-31T10:25:59;35.90;31.20
4245;DHT22;2136;48.502;9.194;2023-08-31T10:28:28;35.10;30.30
4245;DHT22;2136;48.502;9.194;2023-08-31T10:31:01;35.00;30.60
4245;DHT22;2136;48.502;9.194;2023-08-31T10:33:31;34.30;30.00
4245;DHT22;2136;48.502;9.194;2023-08-31T10:35:58;32.90;29.90
4245;DHT22;2136;48.502;9.194;2023-08-31T10:38:27;32.90;32.50
4245;DHT22;2136;48.502;9.194;2023-08-31T10:41:20;34.60;33.20
4245;DHT22;2136;48.502;9.194;2023-08-31T10:43:49;36.40;31.30
4245;DHT22;2136;48.502;9.194;2023-08-31T10:46:28;36.10;29.90
4245;DHT22;2136;48.502;9.194;2023-08-31T10:48:56;35.50;29.00
4245;DHT22;2136;48.502;9.194;2023-08-31T10:51:24;35.90;29.60
4245;DHT22;2136;48.502;9.194;2023-08-31T10:53:51;35.40;27.60
4245;DHT22;2136;48.502;9.194;2023-08-31T10:56:18;34.30;27.90
4245;DHT22;2136;48.502;9.194;2023-08-31T10:59:04;34.10;28.50
4245;DHT22;2136;48.502;9.194;2023-08-31T11:01:54;35.10;29.70
4245;DHT22;2136;48.502;9.194;2023-08-31T11:04:22;37.40;29.80
4245;DHT22;2136;48.502;9.194;2023-08-31T11:06:49;38.20;27.00
4245;DHT22;2136;48.502;9.194;2023-08-31T11:09:20;38.20;26.60
4245;DHT22;2136;48.502;9.194;2023-08-31T11:11:47;38.40;26.40
4245;DHT22;2136;48.502;9.194;2023-08-31T11:14:15;38.10;25.90
4245;DHT22;2136;48.502;9.194;2023-08-31T11:16:43;36.90;25.70
4245;DHT22;2136;48.502;9.194;2023-08-31T11:19:10;35.40;26.40
4245;DHT22;2136;48.502;9.194;2023-08-31T11:21:37;34.30;27.90
4245;DHT22;2136;48.502;9.194;2023-08-31T11:24:04;35.70;29.70
4245;DHT22;2136;48.502;9.194;2023-08-31T11:26:32;36.40;27.90
4245;DHT22;2136;48.502;9.194;2023-08-31T11:28:59;35.40;26.90
4245;DHT22;2136;48.502;9.194;2023-08-31T11:31:27;34.10;27.20
4245;DHT22;2136;48.502;9.194;2023-08-31T11:33:54;32.70;27.90
4245;DHT22;2136;48.502;9.194;2023-08-31T11:36:22;31.50;29.40
4245;DHT22;2136;48.502;9.194;2023-08-31T11:38:51;30.50;31.00
4245;DHT22;2136;48.502;9.194;2023-08-31T11:41:17;29.70;32.40
4245;DHT22;2136;48.502;9.194;2023-08-31T11:43:44;28.90;32.40
4245;DHT22;2136;48.502;9.194;2023-08-31T11:46:12;28.20;33.80
4245;DHT22;2136;48.502;9.194;2023-08-31T11:48:40;28.20;35.50
4245;DHT22;2136;48.502;9.194;2023-08-31T11:51:07;28.30;34.40
4245;DHT22;2136;48.502;9.194;2023-08-31T11:53:34;28.00;34.70
4245;DHT22;2136;48.502;9.194;2023-08-31T11:56:02;27.60;34.70
4245;DHT22;2136;48.502;9.194;2023-08-31T11:58:29;27.10;35.40
4245;DHT22;2136;48.502;9.194;2023-08-31T12:00:57;26.70;36.70
4245;DHT22;2136;48.502;9.194;2023-08-31T12:03:24;26.30;37.40
4245;DHT22;2136;48.502;9.194;2023-08-31T12:05:54;25.90;38.10
4245;DHT22;2136;48.502;9.194;2023-08-31T12:08:27;25.70;39.00
4245;DHT22;2136;48.502;9.194;2023-08-31T12:10:54;25.40;40.20
4245;DHT22;2136;48.502;9.194;2023-08-31T12:13:26;25.10;39.30
4245;DHT22;2136;48.502;9.194;2023-08-31T12:15:54;24.90;39.30
4245;DHT22;2136;48.502;9.194;2023-08-31T12:18:21;24.70;39.70
4245;DHT22;2136;48.502;9.194;2023-08-31T12:20:50;24.60;40.60
4245;DHT22;2136;48.502;9.194;2023-08-31T12:23:19;24.60;40.30
4245;DHT22;2136;48.502;9.194;2023-08-31T12:25:48;24.50;40.20
4245;DHT22;2136;48.502;9.194;2023-08-31T12:28:17;24.30;40.60
4245;DHT22;2136;48.502;9.194;2023-08-31T12:30:47;24.10;40.80
4245;DHT22;2136;48.502;9.194;2023-08-31T12:33:15;24.00;41.20
4245;DHT22;2136;48.502;9.194;2023-08-31T12:35:42;23.90;41.20
4245;DHT22;2136;48.502;9.194;2023-08-31T12:38:09;23.70;41.10
4245;DHT22;2136;48.502;9.194;2023-08-31T12:40:38;23.60;40.90
4245;DHT22;2136;48.502;9.194;2023-08-31T12:43:05;23.40;41.50
4245;DHT22;2136;48.502;9.194;2023-08-31T12:45:32;23.30;42.20
4245;DHT22;2136;48.502;9.194;2023-08-31T12:47:59;23.30;42.20
4245;DHT22;2136;48.502;9.194;2023-08-31T12:50:26;23.20;41.90
4245;DHT22;2136;48.502;9.194;2023-08-31T12:52:52;23.20;42.00
4245;DHT22;2136;48.502;9.194;2023-08-31T12:55:19;23.20;42.00
4245;DHT22;2136;48.502;9.194;2023-08-31T12:57:47;23.30;42.40
4245;DHT22;2136;48.502;9.194;2023-08-31T13:00:15;23.40;42.90
4245;DHT22;2136;48.502;9.194;2023-08-31T13:02:42;23.50;42.50
4245;DHT22;2136;48.502;9.194;2023-08-31T13:05:11;23.50;42.40
4245;DHT22;2136;48.502;9.194;2023-08-31T13:07:38;23.50;42.30
4245;DHT22;2136;48.502;9.194;2023-08-31T13:10:05;23.40;42.50
4245;DHT22;2136;48.502;9.194;2023-08-31T13:12:33;23.60;42.80
4245;DHT22;2136;48.502;9.194;2023-08-31T13:15:01;23.70;42.90
4245;DHT22;2136;48.502;9.194;2023-08-31T13:17:28;23.90;42.80
4245;DHT22;2136;48.502;9.194;2023-08-31T13:19:56;24.00;42.70
4245;DHT22;2136;48.502;9.194;2023-08-31T13:22:24;24.10;42.70
4245;DHT22;2136;48.502;9.194;2023-08-31T13:24:51;24.10;42.40
4245;DHT22;2136;48.502;9.194;2023-08-31T13:27:18;24.00;42.50
4245;DHT22;2136;48.502;9.194;2023-08-31T13:29:45;23.90;41.80
4245;DHT22;2136;48.502;9.194;2023-08-31T13:32:13;23.70;41.70
4245;DHT22;2136;48.502;9.194;2023-08-31T13:34:40;23.50;41.90
4245;DHT22;2136;48.502;9.194;2023-08-31T13:37:07;23.30;42.00
4245;DHT22;2136;48.502;9.194;2023-08-31T13:39:35;23.20;42.20
4245;DHT22;2136;48.502;9.194;2023-08-31T13:42:02;23.10;42.70
4245;DHT22;2136;48.502;9.194;2023-08-31T13:44:30;23.20;43.00
4245;DHT22;2136;48.502;9.194;2023-08-31T13:46:57;23.30;43.50
4245;DHT22;2136;48.502;9.194;2023-08-31T13:49:25;23.30;43.40
4245;DHT22;2136;48.502;9.194;2023-08-31T13:51:52;23.30;43.70
4245;DHT22;2136;48.502;9.194;2023-08-31T13:54:18;23.40;43.40
4245;DHT22;2136;48.502;9.194;2023-08-31T13:56:45;23.60;43.80
4245;DHT22;2136;48.502;9.194;2023-08-31T13:59:12;23.80;43.70
4245;DHT22;2136;48.502;9.194;2023-08-31T14:01:39;23.90;43.80
4245;DHT22;2136;48.502;9.194;2023-08-31T14:04:06;24.00;43.50
4245;DHT22;2136;48.502;9.194;2023-08-31T14:06:34;24.00;42.50
4245;DHT22;2136;48.502;9.194;2023-08-31T14:09:01;23.80;41.90
4245;DHT22;2136;48.502;9.194;2023-08-31T14:11:30;23.70;42.40
4245;DHT22;2136;48.502;9.194;2023-08-31T14:14:02;23.50;42.50
4245;DHT22;2136;48.502;9.194;2023-08-31T14:16:31;23.40;43.00
4245;DHT22;2136;48.502;9.194;2023-08-31T14:18:57;23.20;43.00
4245;DHT22;2136;48.502;9.194;2023-08-31T14:21:24;23.10;43.40
4245;DHT22;2136;48.502;9.194;2023-08-31T14:23:52;23.00;43.60
4245;DHT22;2136;48.502;9.194;2023-08-31T14:26:21;22.90;44.20
4245;DHT22;2136;48.502;9.194;2023-08-31T14:28:49;22.90;44.30
4245;DHT22;2136;48.502;9.194;2023-08-31T14:31:16;22.80;44.90
4245;DHT22;2136;48.502;9.194;2023-08-31T14:33:42;22.80;44.60
4245;DHT22;2136;48.502;9.194;2023-08-31T14:36:09;22.90;45.30
4245;DHT22;2136;48.502;9.194;2023-08-31T14:38:36;23.00;45.10
4245;DHT22;2136;48.502;9.194;2023-08-31T14:41:04;23.00;44.60
4245;DHT22;2136;48.502;9.194;2023-08-31T14:43:32;23.00;44.70
4245;DHT22;2136;48.502;9.194;2023-08-31T14:45:58;22.90;44.90
4245;DHT22;2136;48.502;9.194;2023-08-31T14:48:26;22.90;45.20
4245;DHT22;2136;48.502;9.194;2023-08-31T14:50:53;22.80;44.80
4245;DHT22;2136;48.502;9.194;2023-08-31T14:53:19;22.70;44.80
4245;DHT22;2136;48.502;9.194;2023-08-31T14:55:48;22.60;45.10
4245;DHT22;2136;48.502;9.194;2023-08-31T14:58:16;22.60;45.40
4245;DHT22;2136;48.502;9.194;2023-08-31T15:00:43;22.50;45.50
4245;DHT22;2136;48.502;9.194;2023-08-31T15:03:11;22.40;45.80
4245;DHT22;2136;48.502;9.194;2023-08-31T15:05:38;22.20;46.40
4245;DHT22;2136;48.502;9.194;2023-08-31T15:08:06;22.10;46.70
4245;DHT22;2136;48.502;9.194;2023-08-31T15:10:33;22.00;46.80
4245;DHT22;2136;48.502;9.194;2023-08-31T15:13:00;21.90;47.10
4245;DHT22;2136;48.502;9.194;2023-08-31T15:15:29;21.80;47.00
4245;DHT22;2136;48.502;9.194;2023-08-31T15:17:55;21.70;47.50
4245;DHT22;2136;48.502;9.194;2023-08-31T15:20:23;21.60;47.90
4245;DHT22;2136;48.502;9.194;2023-08-31T15:22:50;21.50;48.70
4245;DHT22;2136;48.502;9.194;2023-08-31T15:25:17;21.50;48.90
4245;DHT22;2136;48.502;9.194;2023-08-31T15:27:44;21.40;48.60
4245;DHT22;2136;48.502;9.194;2023-08-31T15:30:12;21.40;49.00
4245;DHT22;2136;48.502;9.194;2023-08-31T15:32:42;21.40;48.70
4245;DHT22;2136;48.502;9.194;2023-08-31T15:35:09;21.20;48.50
4245;DHT22;2136;48.502;9.194;2023-08-31T15:37:35;21.20;49.00
4245;DHT22;2136;48.502;9.194;2023-08-31T15:40:02;21.10;49.10
4245;DHT22;2136;48.502;9.194;2023-08-31T15:42:29;21.10;49.40
4245;DHT22;2136;48.502;9.194;2023-08-31T15:44:56;21.10;49.70
4245;DHT22;2136;48.502;9.194;2023-08-31T15:47:23;21.00;49.90
4245;DHT22;2136;48.502;9.194;2023-08-31T15:49:51;21.00;50.10
4245;DHT22;2136;48.502;9.194;2023-08-31T15:52:18;21.00;50.00
4245;DHT22;2136;48.502;9.194;2023-08-31T15:54:45;21.00;50.50
4245;DHT22;2136;48.502;9.194;2023-08-31T15:57:12;20.90;50.90
4245;DHT22;2136;48.502;9.194;2023-08-31T15:59:38;20.90;51.30
4245;DHT22;2136;48.502;9.194;2023-08-31T16:02:06;20.90;51.40
4245;DHT22;2136;48.502;9.194;2023-08-31T16:04:33;20.90;52.00
4245;DHT22;2136;48.502;9.194;2023-08-31T16:07:02;20.90;52.20